PWSweather.com
Personal Weather Stations
Station Observations
ISZATSO01
Eastmont Hills, Oakland, CA 94605

Eastmont HillsOakland, CA 94605

Lat: 37.771372, Lon: -122.163016

Elevation: 427

Station Type: Davis VantageVue

http://iszatso.net/weather

Latest ConditionsUpdated 3:50:01 PM PST Sunday, Nov 18, 2018
Currently Today's Max Today's Min Today's Average
Temperature 56.8°F13.8°C 57.5°F14.2°C 45.2°F7.3°C 50.2°F10.1°C
Dew Point 51.0°F10.6°C 51.4°F10.8°C 43.9°F6.6°C 47.6°F8.7°C
Winds Calm Calm 1.1 mph -1.8 kmh - - 0.1 mph 0.2 kmh
Wind Gusts -- 3.5 mph5.6 kmh - -
Humidity 81% 96% 79% 91%
Pressure 30.02 in1016.6 mb 30.11 in1019.6 mb 30.02 in1016.6 mb -
Hour Temp Dew Point Humidity Winds Wind Gusts Pressure Precip Precip Rate Daily Precip Total
03:50 PM 56.8°F13.8°C 51.0°F10.6°C 81% Calm Calm -- 30.02 in1016.6 mb - 0.00 in0.0 mm 0.00 in0.0 mm
03:40 PM 56.4°F13.6°C 50.3°F10.2°C 80% Calm Calm -- 30.02 in1016.6 mb - 0.00 in0.0 mm 0.00 in0.0 mm
03:30 PM 57.0°F13.9°C 50.5°F10.3°C 79% Calm Calm -- 30.02 in1016.6 mb - 0.00 in0.0 mm 0.00 in0.0 mm
03:20 PM 57.3°F14.1°C 50.8°F10.4°C 79% Calm Calm -- 30.03 in1016.9 mb - 0.00 in0.0 mm 0.00 in0.0 mm
03:10 PM 57.4°F14.1°C 50.9°F10.5°C 79% Calm Calm 1.1 mph1.8 kmh 30.03 in1016.9 mb - 0.00 in0.0 mm 0.00 in0.0 mm
03:00 PM 57.3°F14.1°C 50.8°F10.4°C 79% Calm Calm -- 30.03 in1016.9 mb - 0.00 in0.0 mm 0.00 in0.0 mm
02:50 PM 57.5°F14.2°C 51.4°F10.8°C 80% Calm Calm 2.3 mph3.7 kmh 30.03 in1016.9 mb - 0.00 in0.0 mm 0.00 in0.0 mm
02:40 PM 57.0°F13.9°C 50.9°F10.5°C 80% Calm Calm -- 30.03 in1016.9 mb - 0.00 in0.0 mm 0.00 in0.0 mm
02:30 PM 57.0°F13.9°C 51.2°F10.7°C 81% Calm Calm 1.1 mph1.8 kmh 30.04 in1017.3 mb - 0.00 in0.0 mm 0.00 in0.0 mm
02:20 PM 56.6°F13.7°C 50.8°F10.4°C 81% 1.1 mph WSW1.8 kmh WSW 2.3 mph3.7 kmh 30.04 in1017.3 mb - 0.00 in0.0 mm 0.00 in0.0 mm
02:10 PM 56.0°F13.3°C 50.9°F10.5°C 83% Calm Calm -- 30.04 in1017.3 mb - 0.00 in0.0 mm 0.00 in0.0 mm
02:00 PM 55.4°F13.0°C 50.4°F10.2°C 83% 1.1 mph WNW1.8 kmh WNW 3.5 mph5.6 kmh 30.04 in1017.3 mb - 0.00 in0.0 mm 0.00 in0.0 mm
01:50 PM 55.3°F12.9°C 50.5°F10.3°C 84% Calm Calm 1.1 mph1.8 kmh 30.04 in1017.3 mb - 0.00 in0.0 mm 0.00 in0.0 mm
01:40 PM 54.7°F12.6°C 50.3°F10.2°C 85% Calm Calm 1.1 mph1.8 kmh 30.04 in1017.3 mb - 0.00 in0.0 mm 0.00 in0.0 mm
01:30 PM 54.4°F12.4°C 49.9°F9.9°C 85% Calm Calm 1.1 mph1.8 kmh 30.04 in1017.3 mb - 0.00 in0.0 mm 0.00 in0.0 mm
01:20 PM 54.1°F12.3°C 49.4°F9.7°C 84% Calm Calm -- 30.04 in1017.3 mb - 0.00 in0.0 mm 0.00 in0.0 mm
01:10 PM 54.1°F12.3°C 49.4°F9.7°C 84% Calm Calm 3.5 mph5.6 kmh 30.05 in1017.6 mb - 0.00 in0.0 mm 0.00 in0.0 mm
01:00 PM 54.5°F12.5°C 49.4°F9.7°C 83% 1.1 mph WNW1.8 kmh WNW 2.3 mph3.7 kmh 30.05 in1017.6 mb - 0.00 in0.0 mm 0.00 in0.0 mm
12:50 PM 54.9°F12.7°C 49.5°F9.7°C 82% Calm Calm 2.3 mph3.7 kmh 30.05 in1017.6 mb - 0.00 in0.0 mm 0.00 in0.0 mm
12:40 PM 55.6°F13.1°C 49.9°F9.9°C 81% Calm Calm 2.3 mph3.7 kmh 30.05 in1017.6 mb - 0.00 in0.0 mm 0.00 in0.0 mm
12:30 PM 56.0°F13.3°C 50.0°F10.0°C 80% 1.1 mph SW1.8 kmh SW 3.5 mph5.6 kmh 30.05 in1017.6 mb - 0.00 in0.0 mm 0.00 in0.0 mm
12:20 PM 56.7°F13.7°C 50.6°F10.3°C 80% 1.1 mph WSW1.8 kmh WSW 3.5 mph5.6 kmh 30.05 in1017.6 mb - 0.00 in0.0 mm 0.00 in0.0 mm
12:10 PM 56.2°F13.4°C 50.4°F10.2°C 81% 1.1 mph WNW1.8 kmh WNW 2.3 mph3.7 kmh 30.05 in1017.6 mb - 0.00 in0.0 mm 0.00 in0.0 mm
12:00 PM 56.1°F13.4°C 50.3°F10.2°C 81% Calm Calm 2.3 mph3.7 kmh 30.06 in1017.9 mb - 0.00 in0.0 mm 0.00 in0.0 mm
11:50 AM 55.8°F13.2°C 50.4°F10.2°C 82% 1.1 mph WSW1.8 kmh WSW 2.3 mph3.7 kmh 30.06 in1017.9 mb - 0.00 in0.0 mm 0.00 in0.0 mm
11:40 AM 55.8°F13.2°C 50.7°F10.4°C 83% Calm Calm 2.3 mph3.7 kmh 30.06 in1017.9 mb - 0.00 in0.0 mm 0.00 in0.0 mm
11:30 AM 54.8°F12.7°C 50.7°F10.4°C 86% Calm Calm -- 30.07 in1018.3 mb - 0.00 in0.0 mm 0.00 in0.0 mm
11:20 AM 54.1°F12.3°C 50.9°F10.5°C 89% 1.1 mph WSW1.8 kmh WSW 2.3 mph3.7 kmh 30.07 in1018.3 mb - 0.00 in0.0 mm 0.00 in0.0 mm
11:10 AM 53.4°F11.9°C 50.8°F10.4°C 91% 1.1 mph NW1.8 kmh NW 3.5 mph5.6 kmh 30.08 in1018.6 mb - 0.00 in0.0 mm 0.00 in0.0 mm
11:00 AM 52.7°F11.5°C 50.7°F10.4°C 93% Calm Calm 1.1 mph1.8 kmh 30.08 in1018.6 mb - 0.00 in0.0 mm 0.00 in0.0 mm
10:50 AM 52.0°F11.1°C 50.3°F10.2°C 94% Calm Calm -- 30.08 in1018.6 mb - 0.00 in0.0 mm 0.00 in0.0 mm
10:40 AM 51.3°F10.7°C 49.6°F9.8°C 94% Calm Calm -- 30.09 in1019.0 mb - 0.00 in0.0 mm 0.00 in0.0 mm
10:30 AM 50.8°F10.4°C 49.4°F9.7°C 95% 1.1 mph NW1.8 kmh NW 2.3 mph3.7 kmh 30.09 in1019.0 mb - 0.00 in0.0 mm 0.00 in0.0 mm
10:20 AM 50.7°F10.4°C 49.3°F9.6°C 95% Calm Calm -- 30.09 in1019.0 mb - 0.00 in0.0 mm 0.00 in0.0 mm
10:10 AM 49.9°F9.9°C 48.5°F9.2°C 95% Calm Calm 1.1 mph1.8 kmh 30.10 in1019.3 mb - 0.00 in0.0 mm 0.00 in0.0 mm
10:00 AM 49.6°F9.8°C 48.2°F9.0°C 95% Calm Calm -- 30.10 in1019.3 mb - 0.00 in0.0 mm 0.00 in0.0 mm
09:50 AM 49.6°F9.8°C 48.5°F9.2°C 96% Calm Calm 1.1 mph1.8 kmh 30.10 in1019.3 mb - 0.00 in0.0 mm 0.00 in0.0 mm
09:40 AM 49.0°F9.4°C 47.6°F8.7°C 95% Calm Calm -- 30.10 in1019.3 mb - 0.00 in0.0 mm 0.00 in0.0 mm
09:30 AM 48.4°F9.1°C 47.0°F8.3°C 95% Calm Calm -- 30.10 in1019.3 mb - 0.00 in0.0 mm 0.00 in0.0 mm
09:20 AM 48.7°F9.3°C 47.3°F8.5°C 95% Calm Calm 1.1 mph1.8 kmh 30.10 in1019.3 mb - 0.00 in0.0 mm 0.00 in0.0 mm
09:10 AM 48.2°F9.0°C 46.9°F8.3°C 95% Calm Calm -- 30.11 in1019.6 mb - 0.00 in0.0 mm 0.00 in0.0 mm
09:00 AM 48.6°F9.2°C 47.2°F8.4°C 95% Calm Calm -- 30.11 in1019.6 mb - 0.00 in0.0 mm 0.00 in0.0 mm
08:50 AM 48.5°F9.2°C 47.1°F8.4°C 95% Calm Calm -- 30.11 in1019.6 mb - 0.00 in0.0 mm 0.00 in0.0 mm
08:40 AM 48.8°F9.3°C 47.4°F8.6°C 95% 1.1 mph E1.8 kmh E 1.1 mph1.8 kmh 30.11 in1019.6 mb - 0.00 in0.0 mm 0.00 in0.0 mm
08:30 AM 48.6°F9.2°C 47.5°F8.6°C 96% Calm Calm -- 30.11 in1019.6 mb - 0.00 in0.0 mm 0.00 in0.0 mm
08:20 AM 48.5°F9.2°C 47.4°F8.6°C 96% Calm Calm -- 30.11 in1019.6 mb - 0.00 in0.0 mm 0.00 in0.0 mm
08:10 AM 48.3°F9.1°C 46.9°F8.3°C 95% Calm Calm -- 30.11 in1019.6 mb - 0.00 in0.0 mm 0.00 in0.0 mm
08:00 AM 48.1°F8.9°C 46.7°F8.2°C 95% Calm Calm -- 30.11 in1019.6 mb - 0.00 in0.0 mm 0.00 in0.0 mm
07:50 AM 47.9°F8.8°C 46.5°F8.1°C 95% Calm Calm 2.3 mph3.7 kmh 30.11 in1019.6 mb - 0.00 in0.0 mm 0.00 in0.0 mm
07:40 AM 47.7°F8.7°C 46.3°F7.9°C 95% Calm Calm 1.1 mph1.8 kmh 30.11 in1019.6 mb - 0.00 in0.0 mm 0.00 in0.0 mm
07:30 AM 47.9°F8.8°C 46.5°F8.1°C 95% Calm Calm 1.1 mph1.8 kmh 30.10 in1019.3 mb - 0.00 in0.0 mm 0.00 in0.0 mm
07:20 AM 47.9°F8.8°C 46.5°F8.1°C 95% Calm Calm -- 30.10 in1019.3 mb - 0.00 in0.0 mm 0.00 in0.0 mm
07:10 AM 47.8°F8.8°C 46.4°F8.0°C 95% Calm Calm -- 30.10 in1019.3 mb - 0.00 in0.0 mm 0.00 in0.0 mm
07:00 AM 47.7°F8.7°C 46.3°F7.9°C 95% Calm Calm 1.1 mph1.8 kmh 30.10 in1019.3 mb - 0.00 in0.0 mm 0.00 in0.0 mm
06:50 AM 47.7°F8.7°C 46.3°F7.9°C 95% Calm Calm -- 30.10 in1019.3 mb - 0.00 in0.0 mm 0.00 in0.0 mm
06:40 AM 47.7°F8.7°C 46.3°F7.9°C 95% Calm Calm 1.1 mph1.8 kmh 30.10 in1019.3 mb - 0.00 in0.0 mm 0.00 in0.0 mm
06:30 AM 47.7°F8.7°C 46.3°F7.9°C 95% Calm Calm -- 30.09 in1019.0 mb - 0.00 in0.0 mm 0.00 in0.0 mm
06:20 AM 47.6°F8.7°C 46.2°F7.9°C 95% Calm Calm -- 30.09 in1019.0 mb - 0.00 in0.0 mm 0.00 in0.0 mm
06:10 AM 47.3°F8.5°C 45.9°F7.7°C 95% Calm Calm -- 30.09 in1019.0 mb - 0.00 in0.0 mm 0.00 in0.0 mm
06:00 AM 47.2°F8.4°C 45.9°F7.7°C 95% Calm Calm -- 30.09 in1019.0 mb - 0.00 in0.0 mm 0.00 in0.0 mm
05:50 AM 47.1°F8.4°C 45.7°F7.6°C 95% Calm Calm -- 30.09 in1019.0 mb - 0.00 in0.0 mm 0.00 in0.0 mm
05:40 AM 47.0°F8.3°C 45.6°F7.6°C 95% Calm Calm -- 30.08 in1018.6 mb - 0.00 in0.0 mm 0.00 in0.0 mm
05:30 AM 46.7°F8.2°C 45.6°F7.6°C 96% Calm Calm -- 30.08 in1018.6 mb - 0.00 in0.0 mm 0.00 in0.0 mm
05:20 AM 46.1°F7.8°C 45.0°F7.2°C 96% Calm Calm -- 30.08 in1018.6 mb - 0.00 in0.0 mm 0.00 in0.0 mm
05:10 AM 45.2°F7.3°C 43.9°F6.6°C 95% Calm Calm -- 30.08 in1018.6 mb - 0.00 in0.0 mm 0.00 in0.0 mm
05:00 AM 45.3°F7.4°C 43.9°F6.6°C 95% Calm Calm -- 30.07 in1018.3 mb - 0.00 in0.0 mm 0.00 in0.0 mm
04:50 AM 45.8°F7.7°C 44.5°F6.9°C 95% Calm Calm -- 30.07 in1018.3 mb - 0.00 in0.0 mm 0.00 in0.0 mm
04:40 AM 46.0°F7.8°C 44.7°F7.1°C 95% Calm Calm -- 30.07 in1018.3 mb - 0.00 in0.0 mm 0.00 in0.0 mm
04:30 AM 46.3°F7.9°C 44.9°F7.2°C 95% Calm Calm -- 30.07 in1018.3 mb - 0.00 in0.0 mm 0.00 in0.0 mm
04:20 AM 46.5°F8.1°C 45.2°F7.3°C 95% Calm Calm -- 30.06 in1017.9 mb - 0.00 in0.0 mm 0.00 in0.0 mm
04:10 AM 46.9°F8.3°C 45.5°F7.5°C 95% Calm Calm -- 30.07 in1018.3 mb - 0.00 in0.0 mm 0.00 in0.0 mm
04:00 AM 46.9°F8.3°C 45.8°F7.7°C 96% Calm Calm -- 30.07 in1018.3 mb - 0.00 in0.0 mm 0.00 in0.0 mm
03:50 AM 46.5°F8.1°C 45.1°F7.3°C 95% Calm Calm -- 30.07 in1018.3 mb - 0.00 in0.0 mm 0.00 in0.0 mm
03:40 AM 46.2°F7.9°C 44.8°F7.1°C 95% Calm Calm -- 30.07 in1018.3 mb - 0.00 in0.0 mm 0.00 in0.0 mm
03:30 AM 46.3°F7.9°C 44.7°F7.1°C 94% Calm Calm -- 30.07 in1018.3 mb - 0.00 in0.0 mm 0.00 in0.0 mm
03:20 AM 46.7°F8.2°C 45.3°F7.4°C 95% Calm Calm -- 30.06 in1017.9 mb - 0.00 in0.0 mm 0.00 in0.0 mm
03:10 AM 46.8°F8.2°C 45.2°F7.3°C 94% Calm Calm -- 30.06 in1017.9 mb - 0.00 in0.0 mm 0.00 in0.0 mm
03:00 AM 47.3°F8.5°C 45.7°F7.6°C 94% Calm Calm -- 30.06 in1017.9 mb - 0.00 in0.0 mm 0.00 in0.0 mm
02:50 AM 47.3°F8.5°C 45.9°F7.7°C 95% Calm Calm -- 30.07 in1018.3 mb - 0.00 in0.0 mm 0.00 in0.0 mm
02:40 AM 47.2°F8.4°C 45.6°F7.6°C 94% Calm Calm -- 30.06 in1017.9 mb - 0.00 in0.0 mm 0.00 in0.0 mm
02:30 AM 47.4°F8.6°C 45.8°F7.7°C 94% Calm Calm -- 30.07 in1018.3 mb - 0.00 in0.0 mm 0.00 in0.0 mm
02:20 AM 47.7°F8.7°C 46.1°F7.8°C 94% Calm Calm -- 30.07 in1018.3 mb - 0.00 in0.0 mm 0.00 in0.0 mm
02:10 AM 47.9°F8.8°C 46.5°F8.1°C 95% Calm Calm -- 30.07 in1018.3 mb - 0.00 in0.0 mm 0.00 in0.0 mm
02:00 AM 47.6°F8.7°C 46.0°F7.8°C 94% Calm Calm -- 30.07 in1018.3 mb - 0.00 in0.0 mm 0.00 in0.0 mm
01:50 AM 47.5°F8.6°C 45.9°F7.7°C 94% Calm Calm -- 30.07 in1018.3 mb - 0.00 in0.0 mm 0.00 in0.0 mm
01:40 AM 48.0°F8.9°C 46.4°F8.0°C 94% Calm Calm -- 30.07 in1018.3 mb - 0.00 in0.0 mm 0.00 in0.0 mm
01:30 AM 47.6°F8.7°C 46.0°F7.8°C 94% Calm Calm -- 30.07 in1018.3 mb - 0.00 in0.0 mm 0.00 in0.0 mm
01:20 AM 47.5°F8.6°C 45.9°F7.7°C 94% Calm Calm -- 30.07 in1018.3 mb - 0.00 in0.0 mm 0.00 in0.0 mm
01:10 AM 47.5°F8.6°C 45.9°F7.7°C 94% Calm Calm -- 30.07 in1018.3 mb - 0.00 in0.0 mm 0.00 in0.0 mm
01:00 AM 46.9°F8.3°C 45.0°F7.2°C 93% Calm Calm -- 30.07 in1018.3 mb - 0.00 in0.0 mm 0.00 in0.0 mm
12:50 AM 47.1°F8.4°C 45.2°F7.3°C 93% Calm Calm -- 30.07 in1018.3 mb - 0.00 in0.0 mm 0.00 in0.0 mm
12:40 AM 47.5°F8.6°C 45.9°F7.7°C 94% Calm Calm -- 30.06 in1017.9 mb - 0.00 in0.0 mm 0.00 in0.0 mm
12:30 AM 47.2°F8.4°C 45.3°F7.4°C 93% Calm Calm -- 30.06 in1017.9 mb - 0.00 in0.0 mm 0.00 in0.0 mm
12:20 AM 47.3°F8.5°C 45.7°F7.6°C 94% Calm Calm -- 30.06 in1017.9 mb - 0.00 in0.0 mm 0.00 in0.0 mm
12:10 AM 47.2°F8.4°C 45.3°F7.4°C 93% Calm Calm -- 30.06 in1017.9 mb - 0.00 in0.0 mm 0.00 in0.0 mm
12:00 AM 47.4°F8.6°C 45.5°F7.5°C 93% Calm Calm -- 30.05 in1017.6 mb - 0.00 in0.0 mm 0.00 in0.0 mm